Time;durP1;ratioP1;P1;durP2;ratioP2;P2;SDS_P1;SDS_P2;PMS_P1;PMS_P2;Temp;Humidity;BMP_temperature;BMP_pressure;BME280_temperature;BME280_humidity;BME280_pressure;Samples;Min_cycle;Max_cycle;Signal;HPM_P1;HPM_P2
2022/07/13 00:00:55;;;;;;;2.20;1.48;;;23.00;51.90;;;;;;4976288;28;20206;-69
2022/07/13 00:03:22;;;;;;;1.73;1.50;;;23.00;51.90;;;;;;4976423;28;20630;-69
2022/07/13 00:05:49;;;;;;;1.63;1.48;;;23.00;51.90;;;;;;4976296;28;20198;-69
2022/07/13 00:08:16;;;;;;;1.45;1.35;;;23.00;52.00;;;;;;4976649;28;20549;-69
2022/07/13 00:10:44;;;;;;;1.42;1.33;;;23.00;52.00;;;;;;4994437;28;20659;-69
2022/07/13 00:13:11;;;;;;;1.77;1.67;;;23.00;52.00;;;;;;4979519;28;20236;-69
2022/07/13 00:15:38;;;;;;;1.42;1.33;;;23.00;52.00;;;;;;4979614;28;20694;-69
2022/07/13 00:18:06;;;;;;;1.60;1.45;;;23.00;52.10;;;;;;4979664;28;20197;-69
2022/07/13 00:20:34;;;;;;;1.50;1.40;;;23.00;52.10;;;;;;4979464;28;20225;-69
2022/07/13 00:23:01;;;;;;;1.50;1.40;;;22.90;52.00;;;;;;4996993;28;20329;-69
2022/07/13 00:25:28;;;;;;;1.60;1.50;;;22.90;52.00;;;;;;4980135;28;20198;-69
2022/07/13 00:27:55;;;;;;;1.60;1.50;;;22.90;52.10;;;;;;4980304;28;20194;-69
2022/07/13 00:30:22;;;;;;;1.50;1.38;;;22.90;52.10;;;;;;4979675;28;20650;-69
2022/07/13 00:32:49;;;;;;;1.45;1.35;;;22.90;52.10;;;;;;4979322;28;20399;-69
2022/07/13 00:35:18;;;;;;;1.60;1.50;;;22.90;52.20;;;;;;4979100;28;20221;-69
2022/07/13 00:37:45;;;;;;;1.95;1.40;;;22.90;52.20;;;;;;4979271;28;20631;-69
2022/07/13 00:40:13;;;;;;;2.45;1.55;;;22.90;52.20;;;;;;4998746;28;20247;-69
2022/07/13 00:42:40;;;;;;;1.30;1.20;;;22.90;52.30;;;;;;4996529;28;20219;-69
2022/07/13 00:45:08;;;;;;;2.20;1.30;;;22.90;52.30;;;;;;4979324;28;20243;-69
2022/07/13 00:47:35;;;;;;;1.65;1.55;;;22.90;52.30;;;;;;4978968;28;20193;-69
2022/07/13 00:50:06;;;;;;;1.58;1.48;;;22.90;52.30;;;;;;4979123;28;20207;-68
2022/07/13 00:52:35;;;;;;;1.40;1.30;;;22.90;52.40;;;;;;4979020;28;20217;-68
2022/07/13 00:55:02;;;;;;;1.50;1.40;;;22.80;52.30;;;;;;4996418;28;20705;-69
2022/07/13 00:57:30;;;;;;;1.42;1.33;;;22.90;52.40;;;;;;4978821;28;20201;-69
2022/07/13 00:59:57;;;;;;;1.67;1.58;;;22.80;52.40;;;;;;4978612;28;20386;-69
2022/07/13 01:02:25;;;;;;;1.40;1.30;;;22.80;52.50;;;;;;4978509;28;20252;-69
2022/07/13 01:04:52;;;;;;;1.50;1.40;;;22.80;52.50;;;;;;4979124;28;20739;-69
2022/07/13 01:07:19;;;;;;;1.42;1.33;;;22.80;52.50;;;;;;4978925;28;20551;-69
2022/07/13 01:09:48;;;;;;;1.60;1.50;;;22.80;52.40;;;;;;4978556;28;20221;-69
2022/07/13 01:12:14;;;;;;;1.48;1.38;;;22.70;52.40;;;;;;4978614;28;20221;-69
2022/07/13 01:14:41;;;;;;;1.80;1.33;;;22.70;52.40;;;;;;4979581;28;20221;-69
2022/07/13 01:17:08;;;;;;;1.60;1.50;;;22.70;52.40;;;;;;4978946;28;20240;-69
2022/07/13 01:19:35;;;;;;;1.42;1.30;;;22.70;52.40;;;;;;4978470;28;20305;-69
2022/07/13 01:22:03;;;;;;;1.23;1.20;;;22.70;52.40;;;;;;4978297;28;20638;-69
2022/07/13 01:24:32;;;;;;;1.40;1.30;;;22.70;52.40;;;;;;4978333;28;20737;-69
2022/07/13 01:26:59;;;;;;;1.13;1.13;;;22.70;53.00;;;;;;4995997;28;20186;-69
2022/07/13 01:29:27;;;;;;;1.60;1.50;;;22.70;52.60;;;;;;4978733;28;20202;-69
2022/07/13 01:31:58;;;;;;;1.40;1.30;;;22.70;52.50;;;;;;4978744;28;20213;-69
2022/07/13 01:34:25;;;;;;;1.67;1.30;;;22.70;52.60;;;;;;4978286;28;20197;-69
2022/07/13 01:36:52;;;;;;;1.60;1.50;;;22.60;52.50;;;;;;4979192;28;20532;-69
2022/07/13 01:39:19;;;;;;;1.67;1.58;;;22.60;52.60;;;;;;4978447;28;20288;-69
2022/07/13 01:41:49;;;;;;;1.50;1.40;;;22.60;52.60;;;;;;4978256;28;20213;-69
2022/07/13 01:44:16;;;;;;;1.35;1.25;;;22.60;52.60;;;;;;4978153;28;20209;-69
2022/07/13 01:46:43;;;;;;;1.45;1.35;;;22.60;52.60;;;;;;4978021;28;20186;-69
2022/07/13 01:49:10;;;;;;;1.67;1.58;;;22.60;52.60;;;;;;4978004;28;20212;-69
2022/07/13 01:51:38;;;;;;;1.45;1.35;;;22.60;52.70;;;;;;4978763;28;20213;-69
2022/07/13 01:54:05;;;;;;;1.30;1.20;;;22.60;52.70;;;;;;4978729;28;20599;-69
2022/07/13 01:56:33;;;;;;;1.42;1.33;;;22.60;52.70;;;;;;4978506;28;20300;-69
2022/07/13 01:59:01;;;;;;;1.45;1.30;;;22.60;52.80;;;;;;4978019;28;20570;-69
2022/07/13 02:01:28;;;;;;;1.20;1.10;;;22.50;52.70;;;;;;4977728;28;20229;-69
2022/07/13 02:03:55;;;;;;;1.38;1.27;;;22.60;52.80;;;;;;4978636;28;20240;-69
2022/07/13 02:06:22;;;;;;;1.23;1.20;;;22.60;52.80;;;;;;4977948;28;20197;-69
2022/07/13 02:08:49;;;;;;;1.60;1.08;;;22.50;52.80;;;;;;4978048;28;20277;-69
2022/07/13 02:11:21;;;;;;;1.27;1.17;;;22.50;52.80;;;;;;4977841;28;20728;-69
2022/07/13 02:13:48;;;;;;;1.20;1.20;;;22.50;52.80;;;;;;4995232;28;20221;-69
2022/07/13 02:16:17;;;;;;;1.40;1.30;;;22.50;52.80;;;;;;4994943;28;20693;-69
2022/07/13 02:18:45;;;;;;;1.40;1.30;;;22.50;52.80;;;;;;4977700;28;20197;-69
2022/07/13 02:21:12;;;;;;;1.20;1.10;;;22.50;52.80;;;;;;4977499;28;20216;-70
2022/07/13 02:23:43;;;;;;;1.40;1.30;;;22.50;52.80;;;;;;4977883;28;20201;-69
2022/07/13 02:26:10;;;;;;;1.35;1.30;;;22.50;52.80;;;;;;4977711;28;20197;-69
2022/07/13 02:28:39;;;;;;;1.35;1.33;;;22.50;52.90;;;;;;4977449;28;20197;-69
2022/07/13 02:31:07;;;;;;;1.17;1.10;;;22.50;52.90;;;;;;4977486;28;20218;-68
2022/07/13 02:33:37;;;;;;;1.40;1.30;;;22.50;52.90;;;;;;4977290;28;20225;-69
2022/07/13 02:36:05;;;;;;;1.35;1.20;;;22.50;52.80;;;;;;4977231;28;20223;-69
2022/07/13 02:38:32;;;;;;;1.30;1.20;;;22.50;52.80;;;;;;4977487;28;20666;-69
2022/07/13 02:40:59;;;;;;;1.00;1.00;;;22.50;52.80;;;;;;4978086;28;20632;-69
2022/07/13 02:43:27;;;;;;;1.50;1.40;;;22.50;52.90;;;;;;4977233;28;20202;-69
2022/07/13 02:45:54;;;;;;;1.60;1.50;;;22.50;52.90;;;;;;4977463;28;20271;-69
2022/07/13 02:48:21;;;;;;;1.40;1.30;;;22.50;52.90;;;;;;4978288;28;20232;-69
2022/07/13 02:50:50;;;;;;;1.35;1.25;;;22.50;52.90;;;;;;4977572;28;20568;-69
2022/07/13 02:53:18;;;;;;;1.63;1.30;;;22.50;52.90;;;;;;4977566;28;20194;-69
2022/07/13 02:55:45;;;;;;;1.38;1.27;;;22.40;52.80;;;;;;4977315;28;20313;-69
2022/07/13 02:58:12;;;;;;;1.30;1.20;;;22.50;52.90;;;;;;4976927;28;20201;-69
2022/07/13 03:00:39;;;;;;;1.33;1.23;;;22.50;52.90;;;;;;4976954;28;20197;-69
2022/07/13 03:03:06;;;;;;;1.30;1.20;;;22.50;52.90;;;;;;4976814;28;20296;-69
2022/07/13 03:05:35;;;;;;;1.20;1.10;;;22.40;52.80;;;;;;4976970;28;20243;-69
2022/07/13 03:08:03;;;;;;;1.75;1.42;;;22.40;52.80;;;;;;4977138;28;20244;-69
2022/07/13 03:10:31;;;;;;;1.10;1.10;;;22.50;52.80;;;;;;4976995;28;20213;-69
2022/07/13 03:13:00;;;;;;;1.75;1.38;;;22.40;52.90;;;;;;4977412;28;20221;-69
2022/07/13 03:15:27;;;;;;;1.20;1.20;;;22.40;52.90;;;;;;4994449;28;20221;-69
2022/07/13 03:17:55;;;;;;;1.30;1.20;;;22.40;53.00;;;;;;4976804;28;20197;-69
2022/07/13 03:20:23;;;;;;;1.40;1.30;;;22.40;52.90;;;;;;4976705;28;20197;-69
2022/07/13 03:22:51;;;;;;;1.58;1.48;;;22.40;52.90;;;;;;4976790;28;20248;-69
2022/07/13 03:25:20;;;;;;;1.33;1.23;;;22.50;52.90;;;;;;4976434;28;20193;-69
2022/07/13 03:27:48;;;;;;;1.52;1.42;;;22.50;52.80;;;;;;4976645;28;20620;-69
2022/07/13 03:30:15;;;;;;;1.15;1.15;;;22.50;52.80;;;;;;4976723;28;20202;-69
2022/07/13 03:32:42;;;;;;;1.50;1.40;;;22.50;52.60;;;;;;4994071;28;20769;-69
2022/07/13 03:35:10;;;;;;;1.52;1.42;;;22.60;52.60;;;;;;4976348;28;20202;-69
2022/07/13 03:37:38;;;;;;;1.10;1.10;;;22.60;52.60;;;;;;4976844;28;20233;-69
2022/07/13 03:40:09;;;;;;;1.30;1.20;;;22.60;52.60;;;;;;4976639;28;20198;-69
2022/07/13 03:42:39;;;;;;;1.27;1.17;;;22.60;52.50;;;;;;4977422;28;20268;-69
2022/07/13 03:45:08;;;;;;;1.20;1.10;;;22.60;52.40;;;;;;4978763;28;20204;-69
2022/07/13 03:47:36;;;;;;;1.25;1.20;;;22.60;52.30;;;;;;4980540;28;20284;-69
2022/07/13 03:50:03;;;;;;;1.45;1.30;;;22.60;52.30;;;;;;4980208;28;20252;-69
2022/07/13 03:52:30;;;;;;;1.17;1.17;;;22.70;52.40;;;;;;4979860;28;20221;-69
2022/07/13 03:54:58;;;;;;;1.25;1.25;;;22.70;52.40;;;;;;4980004;28;20224;-69
2022/07/13 03:57:25;;;;;;;1.58;1.10;;;22.60;52.30;;;;;;4980057;28;20272;-69
2022/07/13 03:59:54;;;;;;;1.10;1.10;;;22.70;52.40;;;;;;4979861;28;20284;-69
2022/07/13 04:02:21;;;;;;;1.25;1.25;;;22.60;52.30;;;;;;4979678;28;20227;-69
2022/07/13 04:04:49;;;;;;;1.40;1.30;;;22.60;52.30;;;;;;4979569;28;20198;-70
2022/07/13 04:07:16;;;;;;;1.50;1.40;;;22.60;52.80;;;;;;4979519;28;20284;-69
2022/07/13 04:09:43;;;;;;;1.20;1.20;;;22.60;52.30;;;;;;4979470;28;20647;-69
2022/07/13 04:12:11;;;;;;;1.35;1.25;;;22.60;52.30;;;;;;4979702;28;20732;-69
2022/07/13 04:14:39;;;;;;;1.00;1.00;;;22.60;52.30;;;;;;4979867;28;20205;-69
2022/07/13 04:17:07;;;;;;;1.25;1.15;;;22.60;52.30;;;;;;4979433;28;20214;-69
2022/07/13 04:19:34;;;;;;;1.20;1.10;;;22.60;52.30;;;;;;4979576;28;20200;-69
2022/07/13 04:22:01;;;;;;;1.58;1.30;;;22.60;52.30;;;;;;4979389;28;20232;-69
2022/07/13 04:24:35;;;;;;;1.08;1.08;;;22.60;52.30;;;;;;4979269;28;20280;-69
2022/07/13 04:27:02;;;;;;;1.40;1.30;;;22.60;52.30;;;;;;4980290;28;20207;-69
2022/07/13 04:29:29;;;;;;;1.40;1.20;;;22.60;52.30;;;;;;4979473;28;20252;-69
2022/07/13 04:31:56;;;;;;;2.38;1.20;;;22.60;52.50;;;;;;4979435;28;20636;-69
2022/07/13 04:34:25;;;;;;;1.15;1.13;;;22.60;52.40;;;;;;4979792;28;20207;-69
2022/07/13 04:36:53;;;;;;;1.30;1.20;;;22.60;52.50;;;;;;4979277;28;20308;-69
2022/07/13 04:39:20;;;;;;;1.23;1.13;;;22.50;52.50;;;;;;4979274;28;20193;-69
2022/07/13 04:41:47;;;;;;;1.00;1.00;;;22.60;53.10;;;;;;4979014;28;20693;-69
2022/07/13 04:44:15;;;;;;;0.95;0.95;;;22.60;52.50;;;;;;4979063;28;20684;-69
2022/07/13 04:46:42;;;;;;;1.05;1.05;;;22.60;52.50;;;;;;4978771;28;20654;-69
2022/07/13 04:49:10;;;;;;;1.33;1.10;;;22.60;52.50;;;;;;4978738;28;20201;-69
2022/07/13 04:51:39;;;;;;;1.10;1.10;;;22.70;52.40;;;;;;4978710;28;20213;-69
2022/07/13 04:54:10;;;;;;;1.20;1.10;;;22.90;52.10;;;;;;4978669;28;20189;-69
2022/07/13 04:56:38;;;;;;;1.30;1.20;;;23.10;51.60;;;;;;4978172;28;20312;-69
2022/07/13 04:59:05;;;;;;;0.90;0.90;;;23.30;51.20;;;;;;4978598;28;20229;-69
2022/07/13 05:01:32;;;;;;;1.30;1.20;;;23.50;50.80;;;;;;4978324;28;20229;-69
2022/07/13 05:04:02;;;;;;;1.40;1.30;;;23.70;50.20;;;;;;4978748;28;20186;-69
2022/07/13 05:06:30;;;;;;;1.25;1.20;;;23.80;49.80;;;;;;4978504;28;20221;-69
2022/07/13 05:08:58;;;;;;;1.23;1.15;;;24.00;49.40;;;;;;4978786;28;20202;-69
2022/07/13 05:11:25;;;;;;;1.20;1.20;;;24.20;49.20;;;;;;4978346;28;20710;-69
2022/07/13 05:13:52;;;;;;;0.95;0.95;;;24.30;48.90;;;;;;4978354;28;20243;-69
2022/07/13 05:16:20;;;;;;;1.20;1.20;;;24.50;48.70;;;;;;4978223;28;20241;-69
2022/07/13 05:18:47;;;;;;;1.05;1.00;;;24.60;48.40;;;;;;4978481;28;20213;-69
2022/07/13 05:21:19;;;;;;;1.27;1.17;;;24.70;48.10;;;;;;4978452;28;20244;-69
2022/07/13 05:23:46;;;;;;;1.15;1.05;;;24.80;47.80;;;;;;4978576;28;20284;-70
2022/07/13 05:26:15;;;;;;;1.30;1.20;;;25.00;47.70;;;;;;4978683;28;20745;-68
2022/07/13 05:28:42;;;;;;;1.30;1.13;;;25.10;48.10;;;;;;4978975;28;20205;-70
2022/07/13 05:31:12;;;;;;;1.33;1.20;;;25.10;47.20;;;;;;4978261;28;20322;-70
2022/07/13 05:33:40;;;;;;;1.30;1.20;;;25.20;46.90;;;;;;4978494;28;20205;-70
2022/07/13 05:36:08;;;;;;;1.30;1.20;;;25.40;46.80;;;;;;4978300;28;20764;-70
2022/07/13 05:38:35;;;;;;;1.25;1.23;;;25.50;46.60;;;;;;4978222;28;20193;-70
2022/07/13 05:41:03;;;;;;;1.08;1.08;;;25.50;46.30;;;;;;4978208;28;20573;-70
2022/07/13 05:43:31;;;;;;;1.35;1.10;;;25.60;46.20;;;;;;4978211;28;20193;-70
2022/07/13 05:45:59;;;;;;;1.35;1.20;;;25.70;45.90;;;;;;4978756;28;20661;-70
2022/07/13 05:48:26;;;;;;;1.40;1.30;;;25.80;45.70;;;;;;4977964;28;20207;-70
2022/07/13 05:50:53;;;;;;;1.33;1.20;;;25.90;45.70;;;;;;4978251;28;20283;-70
2022/07/13 05:53:21;;;;;;;1.10;1.10;;;25.90;45.60;;;;;;4978858;28;20208;-70
2022/07/13 05:55:48;;;;;;;1.25;1.25;;;25.90;45.50;;;;;;4978130;28;20208;-70
2022/07/13 05:58:15;;;;;;;1.30;1.20;;;25.90;45.40;;;;;;4979856;28;20205;-69
2022/07/13 06:00:44;;;;;;;1.30;1.20;;;26.00;45.30;;;;;;4979297;28;20202;-70
2022/07/13 06:03:11;;;;;;;1.33;1.15;;;26.00;45.40;;;;;;4996245;28;20197;-70
2022/07/13 06:05:38;;;;;;;1.25;1.15;;;26.00;45.50;;;;;;4977924;28;20198;-70
2022/07/13 06:08:05;;;;;;;1.35;1.25;;;25.90;45.60;;;;;;4994478;28;20213;-70
2022/07/13 06:10:32;;;;;;;1.05;1.05;;;25.80;45.70;;;;;;4977583;28;20205;-70
2022/07/13 06:13:00;;;;;;;1.00;1.00;;;25.80;45.70;;;;;;4977729;28;20218;-70
2022/07/13 06:15:27;;;;;;;1.00;1.00;;;25.80;45.70;;;;;;4982748;28;20201;-70
2022/07/13 06:17:55;;;;;;;1.20;1.10;;;25.80;45.60;;;;;;4977553;28;20221;-70
2022/07/13 06:20:22;;;;;;;1.40;1.10;;;25.90;45.70;;;;;;4977443;28;20201;-71
2022/07/13 06:25:30;;;;;;;1.08;1.00;;;25.70;45.70;;;;;;4976453;28;20601;-70
2022/07/13 06:27:57;;;;;;;1.10;1.10;;;25.60;45.90;;;;;;4994907;28;20189;-70
2022/07/13 06:30:24;;;;;;;1.17;1.00;;;25.60;46.80;;;;;;4994653;28;20276;-70
2022/07/13 06:32:51;;;;;;;1.10;1.00;;;25.50;46.50;;;;;;4976869;28;20217;-70
2022/07/13 06:35:19;;;;;;;1.30;1.20;;;25.40;46.70;;;;;;4977030;28;20288;-70
2022/07/13 06:37:46;;;;;;;1.08;1.00;;;25.30;46.70;;;;;;4976905;28;20231;-70
2022/07/13 06:40:13;;;;;;;1.00;1.00;;;25.30;46.90;;;;;;4976982;28;20296;-70
2022/07/13 06:42:40;;;;;;;1.15;1.05;;;25.30;47.00;;;;;;4976782;28;20224;-70
2022/07/13 06:45:08;;;;;;;1.30;1.02;;;25.30;47.00;;;;;;4976915;28;20197;-69
2022/07/13 06:47:35;;;;;;;1.40;1.00;;;25.30;47.00;;;;;;4977049;28;20202;-70
2022/07/13 06:50:02;;;;;;;1.25;1.15;;;25.30;47.00;;;;;;4976880;28;20212;-69
2022/07/13 06:52:31;;;;;;;1.05;1.05;;;25.30;47.00;;;;;;4994015;28;20217;-70
2022/07/13 06:54:58;;;;;;;1.20;1.10;;;25.30;47.00;;;;;;4976442;28;20202;-70
2022/07/13 06:57:25;;;;;;;1.10;1.10;;;25.30;46.90;;;;;;4976845;28;20228;-70
2022/07/13 06:59:53;;;;;;;1.00;1.00;;;25.30;46.90;;;;;;4976724;28;20281;-70
2022/07/13 07:02:20;;;;;;;1.48;0.90;;;25.40;46.80;;;;;;4977488;28;20225;-70
2022/07/13 07:04:46;;;;;;;1.00;1.00;;;25.40;46.60;;;;;;4977266;28;20681;-70
2022/07/13 07:07:14;;;;;;;1.00;1.00;;;25.60;46.50;;;;;;4976889;28;20288;-70
2022/07/13 07:09:42;;;;;;;1.13;1.13;;;25.60;46.30;;;;;;4976547;28;20729;-70
2022/07/13 07:12:10;;;;;;;0.90;0.90;;;25.70;46.20;;;;;;4978425;28;20217;-69
2022/07/13 07:14:37;;;;;;;1.05;1.00;;;25.80;45.90;;;;;;4978463;28;20232;-70
2022/07/13 07:17:05;;;;;;;1.13;1.02;;;26.00;45.70;;;;;;4978134;28;20229;-70
2022/07/13 07:19:32;;;;;;;1.10;1.02;;;26.20;45.30;;;;;;4979186;28;20255;-70
2022/07/13 07:21:59;;;;;;;0.95;0.95;;;26.30;45.00;;;;;;4981456;28;20723;-69
2022/07/13 07:24:26;;;;;;;1.33;1.10;;;26.50;44.60;;;;;;4980624;28;20208;-70
2022/07/13 07:26:54;;;;;;;1.00;1.00;;;26.60;44.30;;;;;;4981015;28;20688;-69
2022/07/13 07:29:22;;;;;;;1.10;1.00;;;26.70;44.00;;;;;;4980911;28;20259;-70
2022/07/13 07:31:49;;;;;;;1.00;1.00;;;26.90;43.80;;;;;;4980523;28;20216;-69
2022/07/13 07:34:16;;;;;;;1.00;1.00;;;27.00;43.70;;;;;;4980329;28;20201;-70
2022/07/13 07:36:43;;;;;;;1.00;1.00;;;27.00;43.40;;;;;;4980245;28;20641;-69
2022/07/13 07:39:12;;;;;;;1.30;1.20;;;27.10;43.30;;;;;;4980414;28;20366;-69
2022/07/13 07:41:40;;;;;;;1.17;1.08;;;27.20;43.10;;;;;;4980587;28;20224;-70
2022/07/13 07:44:08;;;;;;;1.08;0.88;;;27.20;42.90;;;;;;4983128;28;20669;-70
2022/07/13 07:46:35;;;;;;;0.93;0.90;;;27.30;42.80;;;;;;4982161;28;20201;-69
2022/07/13 07:49:03;;;;;;;0.88;0.88;;;27.40;42.70;;;;;;4981364;28;20623;-70
2022/07/13 07:51:30;;;;;;;1.20;1.10;;;27.40;42.50;;;;;;4981659;28;20236;-72
2022/07/13 07:53:58;;;;;;;1.33;1.17;;;27.50;42.50;;;;;;4980828;28;20693;-70
2022/07/13 07:56:25;;;;;;;1.80;1.50;;;27.50;42.50;;;;;;4979992;28;20307;-70
2022/07/13 07:58:51;;;;;;;1.30;1.20;;;27.60;42.40;;;;;;4979873;28;20211;-69
2022/07/13 08:01:20;;;;;;;4.13;1.48;;;27.60;42.40;;;;;;4979710;28;20294;-70
2022/07/13 08:03:47;;;;;;;2.78;1.30;;;27.70;42.70;;;;;;4979726;28;20200;-70
2022/07/13 08:06:15;;;;;;;6.10;1.60;;;27.70;42.90;;;;;;4996988;28;20197;-70
2022/07/13 08:08:43;;;;;;;7.78;1.70;;;27.80;42.80;;;;;;4979680;28;20579;-69
2022/07/13 08:11:16;;;;;;;5.43;1.60;;;27.80;42.70;;;;;;4979519;28;20228;-70
2022/07/13 08:13:43;;;;;;;3.72;2.00;;;27.90;42.90;;;;;;4979744;28;20569;-69
2022/07/13 08:16:10;;;;;;;2.35;1.70;;;28.00;43.20;;;;;;4979420;28;20574;-70
2022/07/13 08:18:38;;;;;;;3.30;1.90;;;27.90;43.40;;;;;;4979349;28;20216;-70
2022/07/13 08:21:06;;;;;;;2.63;1.83;;;27.90;43.30;;;;;;4979265;28;20576;-69
2022/07/13 08:26:18;;;;;;;6.25;1.80;;;27.90;43.80;;;;;;4996731;28;20166;-70
2022/07/13 08:28:45;;;;;;;6.70;2.33;;;27.70;43.90;;;;;;4996793;28;20712;-70
2022/07/13 08:31:12;;;;;;;3.70;2.00;;;27.60;44.50;;;;;;4978000;28;20788;-70
2022/07/13 08:39:09;;;;;;;1.63;1.50;;;27.30;44.80;;;;;;4979489;28;20193;-69
2022/07/13 08:41:36;;;;;;;3.42;1.80;;;27.20;45.00;;;;;;4996714;28;20259;-69
2022/07/13 08:44:03;;;;;;;3.58;1.70;;;27.10;45.00;;;;;;4996617;28;20199;-69
2022/07/13 08:46:31;;;;;;;2.63;1.73;;;27.10;45.10;;;;;;4978684;28;20196;-70
2022/07/13 08:49:00;;;;;;;1.83;1.58;;;27.00;45.30;;;;;;4979031;28;20220;-70
2022/07/13 08:51:28;;;;;;;3.83;2.00;;;27.00;45.30;;;;;;4978597;28;20244;-70
2022/07/13 08:53:55;;;;;;;2.40;1.65;;;27.00;45.30;;;;;;4978467;28;20666;-69
2022/07/13 08:56:22;;;;;;;2.45;1.63;;;27.00;45.20;;;;;;4978623;28;20217;-69
2022/07/13 08:58:49;;;;;;;2.10;1.70;;;27.00;45.40;;;;;;4978328;28;20217;-69
2022/07/13 09:01:16;;;;;;;1.75;1.60;;;27.10;45.30;;;;;;4978354;28;20228;-69
2022/07/13 09:03:43;;;;;;;2.10;1.70;;;27.10;45.20;;;;;;4978383;28;20196;-70
2022/07/13 09:06:12;;;;;;;2.38;1.80;;;27.10;45.00;;;;;;4978377;28;20207;-69
2022/07/13 09:08:42;;;;;;;2.13;1.50;;;27.20;45.10;;;;;;4978362;28;20203;-70
2022/07/13 09:11:09;;;;;;;2.97;1.50;;;27.20;44.80;;;;;;4996013;28;20299;-69
2022/07/13 09:13:38;;;;;;;2.70;1.70;;;27.20;44.70;;;;;;4978077;28;20248;-68
2022/07/13 09:16:16;;;;;;;2.28;1.50;;;27.20;44.60;;;;;;4995596;28;20684;-69
2022/07/13 09:18:43;;;;;;;2.72;1.60;;;27.30;44.70;;;;;;4995483;28;20232;-69
2022/07/13 09:21:11;;;;;;;1.85;1.35;;;27.20;44.60;;;;;;4978110;28;20216;-69
2022/07/13 09:23:38;;;;;;;1.70;1.60;;;27.30;44.50;;;;;;4978131;28;20221;-70
2022/07/13 09:26:05;;;;;;;2.20;1.50;;;27.30;45.00;;;;;;4978206;28;20207;-70
2022/07/13 09:28:44;;;;;;;2.10;1.45;;;27.40;44.20;;;;;;4978055;28;20199;-69
2022/07/13 09:31:11;;;;;;;1.88;1.70;;;27.40;44.20;;;;;;4978294;28;20224;-70
2022/07/13 09:33:39;;;;;;;3.70;1.65;;;27.50;44.00;;;;;;4977857;28;20292;-68
2022/07/13 09:36:11;;;;;;;1.50;1.40;;;27.60;43.90;;;;;;4977879;28;20669;-70
2022/07/13 09:38:39;;;;;;;3.72;1.38;;;27.60;43.60;;;;;;4977947;28;20227;-68
2022/07/13 09:41:20;;;;;;;3.08;1.67;;;27.70;43.50;;;;;;4978013;28;20226;-69
2022/07/13 09:46:53;;;;;;;1.88;1.70;;;27.80;43.50;;;;;;4977925;28;20189;-71
2022/07/13 09:49:23;;;;;;;2.50;1.70;;;27.80;43.40;;;;;;4995139;28;20198;-69
2022/07/13 09:51:58;;;;;;;2.80;1.50;;;27.80;43.40;;;;;;4978374;28;20253;-69
2022/07/13 09:54:26;;;;;;;2.55;1.55;;;27.80;43.50;;;;;;4978478;28;20299;-69
2022/07/13 09:56:53;;;;;;;4.38;1.80;;;27.80;43.50;;;;;;4977696;28;20304;-69
2022/07/13 09:59:21;;;;;;;1.65;1.50;;;27.80;44.00;;;;;;4977627;28;20223;-69
2022/07/13 10:01:48;;;;;;;2.45;1.58;;;27.70;43.90;;;;;;4994677;28;20224;-69
2022/07/13 10:04:15;;;;;;;4.53;1.50;;;27.80;43.80;;;;;;4977480;28;20271;-69
2022/07/13 10:06:42;;;;;;;1.80;1.63;;;27.70;43.90;;;;;;4977122;28;20273;-70
2022/07/13 10:09:10;;;;;;;6.13;1.45;;;27.70;44.10;;;;;;4977218;28;20650;-69
2022/07/13 10:11:37;;;;;;;2.47;1.58;;;27.70;44.10;;;;;;4977395;28;20226;-68
2022/07/13 10:14:04;;;;;;;3.38;1.40;;;27.70;44.60;;;;;;4977150;28;20207;-69
2022/07/13 10:16:31;;;;;;;3.47;1.63;;;27.70;44.70;;;;;;4977122;28;20207;-69
2022/07/13 10:19:03;;;;;;;3.05;1.50;;;27.70;44.40;;;;;;4977652;28;20231;-69
2022/07/13 10:21:34;;;;;;;3.67;1.55;;;27.70;44.70;;;;;;4977783;28;20216;-70
2022/07/13 10:24:01;;;;;;;2.85;1.40;;;27.70;44.80;;;;;;4977494;28;20197;-69
2022/07/13 10:26:30;;;;;;;2.25;1.38;;;27.70;44.90;;;;;;4976899;28;20300;-70
2022/07/13 10:29:06;;;;;;;2.50;1.40;;;27.70;45.40;;;;;;4976804;28;20265;-69
2022/07/13 10:31:36;;;;;;;1.48;1.20;;;27.70;45.30;;;;;;4977055;28;20719;-69
2022/07/13 10:34:03;;;;;;;1.67;1.33;;;27.60;45.40;;;;;;4977063;28;20666;-70
2022/07/13 10:36:56;;;;;;;2.83;1.42;;;27.60;45.30;;;;;;4976851;28;20672;-68
2022/07/13 10:39:23;;;;;;;2.10;1.38;;;27.60;45.30;;;;;;4994154;28;20634;-70
2022/07/13 10:41:58;;;;;;;1.35;1.20;;;27.60;45.30;;;;;;4976817;28;20228;-69
2022/07/13 10:44:33;;;;;;;2.28;1.50;;;27.50;45.20;;;;;;4977068;28;20210;-69
2022/07/13 10:47:00;;;;;;;1.50;1.40;;;27.50;45.80;;;;;;4994589;28;20292;-69
2022/07/13 10:49:44;;;;;;;1.65;1.30;;;27.50;45.20;;;;;;4994257;28;20189;-69
2022/07/13 10:52:48;;;;;;;2.63;1.42;;;27.50;45.20;;;;;;4977077;28;20217;-69
2022/07/13 10:55:29;;;;;;;2.15;1.30;;;27.40;45.20;;;;;;4994515;28;20176;-69
2022/07/13 10:57:57;;;;;;;2.40;1.40;;;27.40;45.20;;;;;;4978472;28;20212;-69
2022/07/13 11:00:43;;;;;;;2.20;1.42;;;27.30;45.10;;;;;;4994467;28;20284;-69
2022/07/13 11:03:28;;;;;;;3.85;1.38;;;27.30;45.10;;;;;;4976651;28;20590;-69
2022/07/13 11:06:09;;;;;;;1.30;1.20;;;27.30;45.20;;;;;;4994219;28;20196;-69
2022/07/13 11:08:36;;;;;;;1.58;1.20;;;27.30;45.10;;;;;;4977464;28;20270;-69
2022/07/13 11:11:13;;;;;;;1.45;1.35;;;27.30;45.10;;;;;;4994201;28;20189;-69
2022/07/13 11:13:42;;;;;;;1.40;1.30;;;27.20;45.10;;;;;;4976530;28;20214;-69
2022/07/13 11:16:09;;;;;;;1.20;1.10;;;27.20;45.10;;;;;;4976820;28;20595;-69
2022/07/13 11:18:37;;;;;;;2.28;1.20;;;27.20;45.10;;;;;;4976393;28;20224;-69
2022/07/13 11:21:04;;;;;;;2.38;1.20;;;27.20;45.10;;;;;;4976598;28;20199;-68
2022/07/13 11:26:29;;;;;;;2.45;1.33;;;27.20;45.10;;;;;;4976585;28;20614;-69
2022/07/13 11:29:02;;;;;;;1.30;1.20;;;27.20;45.10;;;;;;4976744;28;20205;-69
2022/07/13 11:31:29;;;;;;;3.45;1.40;;;27.20;45.10;;;;;;4994136;28;20215;-69
2022/07/13 11:33:56;;;;;;;1.52;1.13;;;27.20;45.10;;;;;;4976801;28;20295;-69
2022/07/13 11:36:24;;;;;;;1.20;1.10;;;27.20;45.10;;;;;;4977693;28;20196;-69
2022/07/13 11:38:51;;;;;;;2.55;1.20;;;27.20;45.10;;;;;;4976838;28;20230;-69
2022/07/13 11:41:20;;;;;;;1.80;1.27;;;27.20;45.00;;;;;;4976749;28;20238;-69
2022/07/13 11:43:47;;;;;;;2.42;1.10;;;27.20;45.70;;;;;;4977401;28;20244;-69
2022/07/13 11:46:17;;;;;;;1.92;1.20;;;27.20;45.00;;;;;;4976837;28;20189;-69
2022/07/13 11:48:44;;;;;;;2.58;1.10;;;27.20;45.00;;;;;;4993940;28;20173;-69
2022/07/13 11:51:11;;;;;;;1.30;1.20;;;27.20;45.00;;;;;;4976616;28;20645;-69
2022/07/13 11:53:38;;;;;;;2.03;1.10;;;27.20;45.00;;;;;;4976533;28;20205;-68
2022/07/13 11:56:06;;;;;;;1.30;1.20;;;27.10;45.00;;;;;;4994119;28;20292;-69
2022/07/13 11:58:34;;;;;;;1.17;1.10;;;27.10;45.60;;;;;;4976512;28;20217;-69
2022/07/13 12:01:02;;;;;;;1.40;1.27;;;27.10;45.00;;;;;;4990798;23;20238;-68
2022/07/13 12:03:32;;;;;;;4.60;1.30;;;27.10;45.00;;;;;;4993399;28;20543;-68
2022/07/13 12:06:01;;;;;;;1.95;1.25;;;27.00;45.10;;;;;;4977168;28;20699;-68
2022/07/13 12:08:29;;;;;;;1.92;1.17;;;27.00;45.10;;;;;;4979265;28;20220;-68
2022/07/13 12:10:56;;;;;;;1.88;1.00;;;27.00;45.10;;;;;;4979199;28;20228;-68
2022/07/13 12:13:24;;;;;;;1.27;1.17;;;27.00;45.20;;;;;;4996753;28;20201;-68
2022/07/13 12:15:51;;;;;;;1.48;1.00;;;26.90;45.30;;;;;;4996689;28;20193;-68
2022/07/13 12:18:19;;;;;;;1.60;1.15;;;26.90;45.30;;;;;;4996651;28;20235;-68
2022/07/13 12:20:47;;;;;;;2.22;1.20;;;26.90;45.30;;;;;;4979042;28;20196;-68
2022/07/13 12:23:15;;;;;;;2.13;1.30;;;26.90;45.30;;;;;;4996603;28;20779;-68
2022/07/13 12:25:42;;;;;;;2.75;0.98;;;26.90;45.40;;;;;;4979056;28;20207;-68
2022/07/13 12:28:10;;;;;;;4.53;1.10;;;26.90;45.40;;;;;;4979195;28;20635;-68
2022/07/13 12:30:57;;;;;;;1.00;0.90;;;26.90;45.50;;;;;;4996368;28;20201;-68
2022/07/13 12:33:24;;;;;;;1.27;1.05;;;26.90;45.40;;;;;;4978851;28;20251;-68
2022/07/13 12:38:34;;;;;;;1.08;1.00;;;26.90;45.40;;;;;;5007006;22;20268;-69
2022/07/13 12:41:03;;;;;;;1.90;1.00;;;26.90;45.40;;;;;;4978783;28;20291;-70
2022/07/13 12:43:30;;;;;;;0.98;0.90;;;26.90;45.50;;;;;;4978883;28;20212;-69
2022/07/13 12:45:58;;;;;;;3.80;1.10;;;26.90;45.60;;;;;;4978501;28;20215;-69
2022/07/13 12:48:26;;;;;;;2.47;1.05;;;26.90;45.50;;;;;;4978631;28;20200;-69
2022/07/13 12:50:58;;;;;;;1.25;1.15;;;26.90;45.80;;;;;;4978570;28;20225;-70
2022/07/13 12:53:25;;;;;;;2.50;1.45;;;26.90;45.90;;;;;;4978357;28;20256;-70
2022/07/13 12:55:55;;;;;;;1.08;1.00;;;27.00;46.10;;;;;;4978575;28;20193;-70
2022/07/13 12:58:41;;;;;;;2.78;1.10;;;27.00;46.20;;;;;;4978297;28;20227;-70
2022/07/13 13:01:08;;;;;;;1.88;1.10;;;27.00;46.30;;;;;;4978606;28;20717;-70
2022/07/13 13:03:35;;;;;;;1.20;1.10;;;27.00;46.20;;;;;;4978397;28;20291;-70
2022/07/13 13:06:02;;;;;;;2.58;1.05;;;27.00;46.00;;;;;;4995967;28;20199;-70
2022/07/13 13:08:29;;;;;;;1.95;1.02;;;27.00;46.00;;;;;;4999970;28;20189;-70
2022/07/13 13:10:58;;;;;;;1.20;0.90;;;27.10;46.00;;;;;;4995934;28;20267;-70
2022/07/13 13:13:25;;;;;;;1.73;1.00;;;27.10;45.90;;;;;;4996054;28;20276;-70